Time;durP1;ratioP1;P1;durP2;ratioP2;P2;SDS_P1;SDS_P2;PMS_P1;PMS_P2;Temp;Humidity;BMP_temperature;BMP_pressure;BME280_temperature;BME280_humidity;BME280_pressure;Samples;Min_cycle;Max_cycle;Signal;HPM_P1;HPM_P2
2020/12/09 00:00:07;;;;;;;7.43;6.30;;;;;;;;;;4588354;28;20463;-76
2020/12/09 00:02:42;;;;;;;6.83;6.07;;;7.50;74.10;;;;;;4589307;28;20436;-75
2020/12/09 00:04:57;;;;;;;8.03;7.20;;;9.40;75.10;;;;;;4588391;28;20440;-75
2020/12/09 00:07:12;;;;;;;16.90;14.23;;;7.90;75.30;;;;;;4588621;28;20444;-73
2020/12/09 00:09:28;;;;;;;7.43;6.73;;;8.30;75.50;;;;;;4586873;28;20860;-75
2020/12/09 00:11:43;;;;;;;7.53;6.77;;;;;;;;;;4587883;28;20444;-75
2020/12/09 00:13:59;;;;;;;7.50;6.50;;;6.60;73.40;;;;;;4587739;28;20510;-73
2020/12/09 00:16:17;;;;;;;7.77;6.97;;;8.80;74.90;;;;;;4587604;28;20472;-75
2020/12/09 00:18:32;;;;;;;7.93;7.17;;;8.60;74.90;;;;;;4588553;28;20436;-75
2020/12/09 00:20:48;;;;;;;8.13;7.33;;;9.10;75.00;;;;;;4587510;28;20927;-75
2020/12/09 00:23:04;;;;;;;8.00;7.30;;;7.10;71.20;;;;;;4588503;28;20468;-78
2020/12/09 00:25:20;;;;;;;7.80;7.00;;;8.20;75.00;;;;;;4591439;28;20491;-75
2020/12/09 00:27:36;;;;;;;8.00;6.50;;;;;;;;;;4592101;28;20459;-78
2020/12/09 00:29:52;;;;;;;8.17;7.37;;;;;;;;;;4593375;28;20536;-78
2020/12/09 00:32:08;;;;;;;8.30;7.40;;;7.70;76.40;;;;;;4594517;28;20460;-76
2020/12/09 00:34:24;;;;;;;8.23;7.40;;;;;;;;;;4592898;28;20475;-77
2020/12/09 00:36:43;;;;;;;7.67;6.87;;;8.30;77.70;;;;;;4593762;28;20961;-77
2020/12/09 00:38:59;;;;;;;8.23;7.43;;;6.40;76.80;;;;;;4591605;28;20444;-78
2020/12/09 00:41:15;;;;;;;8.40;7.60;;;;;;;;;;4594730;28;20448;-76
2020/12/09 00:43:31;;;;;;;8.67;7.83;;;;;;;;;;4593087;28;20852;-77
2020/12/09 00:45:47;;;;;;;8.40;7.60;;;;;;;;;;4594763;28;20451;-77
2020/12/09 00:48:03;;;;;;;8.77;7.87;;;;;;;;;;4591617;28;20451;-77
2020/12/09 00:50:29;;;;;;;7.97;7.23;;;;;;;;;;4592742;28;21167;-77
2020/12/09 00:52:54;;;;;;;8.10;7.23;;;8.80;79.30;;;;;;4575691;28;20497;-76
2020/12/09 00:55:12;;;;;;;7.83;7.10;;;;;;;;;;4592152;28;20475;-78
2020/12/09 00:57:33;;;;;;;9.77;8.17;;;;;;;;;;4592552;28;20844;-76
2020/12/09 00:59:49;;;;;;;9.37;8.47;;;;;;;;;;4593020;28;20519;-77
2020/12/09 01:02:07;;;;;;;9.67;8.40;;;8.20;79.70;;;;;;4592796;28;20435;-77
2020/12/09 01:04:24;;;;;;;8.93;8.03;;;;;;;;;;4591589;28;20443;-78
2020/12/09 01:06:39;;;;;;;8.20;7.40;;;;;;;;;;4594100;28;20543;-76
2020/12/09 01:08:55;;;;;;;8.97;8.07;;;;;;;;;;4592918;28;20468;-78
2020/12/09 01:11:11;;;;;;;9.27;8.27;;;;;;;;;;4592619;28;20543;-77
2020/12/09 01:13:27;;;;;;;9.43;8.53;;;;;;;;;;4592569;28;20448;-76
2020/12/09 01:15:43;;;;;;;8.67;7.87;;;;;;;;;;4593820;28;20482;-78
2020/12/09 01:17:58;;;;;;;9.30;8.40;;;7.30;79.90;;;;;;4592162;28;20448;-78
2020/12/09 01:20:15;;;;;;;8.77;7.90;;;;;;;;;;4592742;28;20531;-75
2020/12/09 01:22:31;;;;;;;8.83;8.03;;;;;;;;;;4592488;28;20851;-78
2020/12/09 01:24:46;;;;;;;8.43;7.57;;;;;;;;;;4594211;28;20478;-78
2020/12/09 01:27:02;;;;;;;8.30;7.40;;;;;;;;;;4592331;28;20811;-77
2020/12/09 01:29:18;;;;;;;9.80;7.70;;;;;;;;;;4593911;28;20883;-77
2020/12/09 01:31:34;;;;;;;9.07;8.17;;;;;;;;;;4592354;28;20454;-77
2020/12/09 01:33:50;;;;;;;8.97;8.07;;;;;;;;;;4593647;28;20814;-77
2020/12/09 01:36:08;;;;;;;9.27;8.03;;;;;;;;;;4592412;28;20495;-77
2020/12/09 01:38:24;;;;;;;10.10;8.80;;;;;;;;;;4593210;28;20942;-77
2020/12/09 01:40:39;;;;;;;9.03;8.03;;;;;;;;;;4592857;28;20451;-76
2020/12/09 01:42:55;;;;;;;8.83;8.00;;;;;;;;;;4593322;28;20813;-77
2020/12/09 01:45:11;;;;;;;8.77;7.87;;;;;;;;;;4593160;28;20482;-77
2020/12/09 01:47:27;;;;;;;8.83;7.93;;;;;;;;;;4592719;28;20448;-77
2020/12/09 01:49:43;;;;;;;9.47;7.63;;;;;;;;;;4593156;28;20456;-77
2020/12/09 01:52:00;;;;;;;10.83;8.87;;;;;;;;;;4592182;28;20573;-79
2020/12/09 01:54:16;;;;;;;9.40;8.50;;;;;;;;;;4593522;28;20942;-77
2020/12/09 01:56:32;;;;;;;9.60;8.63;;;;;;;;;;4592085;28;20510;-78
2020/12/09 01:58:49;;;;;;;9.87;8.37;;;6.70;74.40;;;;;;4592096;28;20444;-77
2020/12/09 02:01:06;;;;;;;9.33;8.43;;;;;;;;;;4590825;28;20440;-77
2020/12/09 02:03:22;;;;;;;9.70;8.67;;;;;;;;;;4593156;28;20459;-77
2020/12/09 02:05:37;;;;;;;11.17;8.47;;;;;;;;;;4592201;28;20436;-78
2020/12/09 02:07:55;;;;;;;9.43;8.37;;;;;;;;;;4592607;28;20441;-78
2020/12/09 02:10:14;;;;;;;9.70;8.70;;;;;;;;;;4590985;28;20506;-79
2020/12/09 02:12:32;;;;;;;10.30;8.77;;;;;;;;;;4592693;28;20543;-79
2020/12/09 02:14:49;;;;;;;8.83;7.93;;;;;;;;;;4591865;28;20575;-78
2020/12/09 02:17:05;;;;;;;9.40;8.23;;;;;;;;;;4593083;28;20443;-79
2020/12/09 02:19:22;;;;;;;9.73;8.43;;;5.80;74.00;;;;;;4590633;28;20487;-78
2020/12/09 02:21:39;;;;;;;9.70;8.70;;;;;;;;;;4593762;28;20467;-78
2020/12/09 02:23:55;;;;;;;9.47;8.57;;;8.30;80.80;;;;;;4592744;28;20443;-78
2020/12/09 02:26:11;;;;;;;10.03;8.73;;;;;;;;;;4591802;28;20930;-78
2020/12/09 02:28:27;;;;;;;9.70;8.70;;;;;;;;;;4591755;28;20490;-78
2020/12/09 02:30:44;;;;;;;9.80;8.80;;;;;;;;;;4594126;28;21132;-80
2020/12/09 02:33:00;;;;;;;9.40;8.50;;;;;;;;;;4595300;28;20454;-79
2020/12/09 02:35:16;;;;;;;9.77;8.77;;;;;;;;;;4594398;28;21000;-78
2020/12/09 02:37:34;;;;;;;11.03;9.30;;;;;;;;;;4595457;28;20451;-79
2020/12/09 02:39:50;;;;;;;9.47;8.47;;;;;;;;;;4595757;28;20479;-79
2020/12/09 02:42:06;;;;;;;12.20;8.63;;;;;;;;;;4595419;28;20581;-79
2020/12/09 02:44:23;;;;;;;9.33;8.37;;;;;;;;;;4595440;28;20448;-79
2020/12/09 02:46:39;;;;;;;9.53;8.53;;;;;;;;;;4596722;28;21001;-78
2020/12/09 02:48:59;;;;;;;9.70;8.70;;;8.20;80.90;;;;;;4593992;28;20459;-79
2020/12/09 02:51:15;;;;;;;9.07;8.10;;;5.90;79.20;;;;;;4596740;28;20961;-79
2020/12/09 02:53:32;;;;;;;10.60;8.87;;;;;;;;;;4593889;28;20459;-78
2020/12/09 02:55:49;;;;;;;10.13;9.13;;;;;;;;;;4595417;28;20529;-78
2020/12/09 02:58:06;;;;;;;10.17;9.13;;;;;;;;;;4595093;28;20448;-79
2020/12/09 03:00:22;;;;;;;10.17;9.07;;;;;;;;;;4596699;28;20894;-80
2020/12/09 03:02:38;;;;;;;10.20;9.20;;;8.10;81.30;;;;;;4594095;28;20448;-80
2020/12/09 03:04:54;;;;;;;9.70;8.70;;;;;;;;;;4596309;28;20502;-79
2020/12/09 03:07:11;;;;;;;10.47;9.37;;;;;;;;;;4595440;28;20450;-80
2020/12/09 03:09:28;;;;;;;11.20;10.00;;;;;;;;;;4596184;28;20494;-79
2020/12/09 03:11:44;;;;;;;10.57;9.57;;;;;;;;;;4596934;28;20440;-80
2020/12/09 03:14:00;;;;;;;10.20;9.20;;;;;;;;;;4594806;28;20450;-80
2020/12/09 03:16:16;;;;;;;10.00;9.00;;;;;;;;;;4595810;28;20483;-80
2020/12/09 03:18:33;;;;;;;10.53;9.43;;;;;;;;;;4598619;28;20463;-80
2020/12/09 03:20:49;;;;;;;11.07;9.67;;;;;;;;;;4598695;28;20439;-79
2020/12/09 03:23:06;;;;;;;11.10;9.93;;;;;;;;;;4596310;28;20969;-79
2020/12/09 03:25:23;;;;;;;10.90;9.77;;;;;;;;;;4602882;28;20440;-79
2020/12/09 03:27:39;;;;;;;13.00;10.87;;;7.40;80.90;;;;;;4599609;28;20890;-79
2020/12/09 03:29:55;;;;;;;10.63;9.53;;;;;;;;;;4596172;28;20475;-77
2020/12/09 03:32:12;;;;;;;10.93;9.83;;;;;;;;;;4599975;28;20949;-77
2020/12/09 03:34:28;;;;;;;11.90;10.33;;;;;;;;;;4602335;28;20436;-79
2020/12/09 03:36:44;;;;;;;11.43;10.27;;;;;;;;;;4597259;28;20475;-79
2020/12/09 03:39:01;;;;;;;11.77;10.40;;;;;;;;;;4599263;28;20448;-77
2020/12/09 03:41:18;;;;;;;11.27;10.10;;;8.80;82.00;;;;;;4595896;28;20486;-78
2020/12/09 03:43:34;;;;;;;11.63;9.90;;;;;;;;;;4595543;28;20446;-78
2020/12/09 03:45:51;;;;;;;12.07;10.73;;;;;;;;;;4595224;28;20455;-79
2020/12/09 03:48:08;;;;;;;11.53;10.33;;;;;;;;;;4594994;28;20448;-79
2020/12/09 03:50:24;;;;;;;12.00;10.30;;;;;;;;;;4595138;28;20448;-78
2020/12/09 03:52:40;;;;;;;11.17;10.07;;;;;;;;;;4595909;28;20934;-79
2020/12/09 03:54:56;;;;;;;11.10;9.83;;;;;;;;;;4594580;28;20444;-80
2020/12/09 03:57:13;;;;;;;10.57;9.47;;;;;;;;;;4595682;28;20813;-79
2020/12/09 03:59:30;;;;;;;11.00;9.90;;;;;;;;;;4593847;28;20448;-79
2020/12/09 04:01:46;;;;;;;13.23;11.67;;;;;;;;;;4595101;28;20444;-79
2020/12/09 04:04:02;;;;;;;10.60;9.53;;;;;;;;;;4595259;28;20429;-79
2020/12/09 04:06:19;;;;;;;10.70;9.60;;;;;;;;;;4593460;28;20447;-80
2020/12/09 04:08:35;;;;;;;11.33;9.53;;;;;;;;;;4593980;28;20475;-78
2020/12/09 04:10:51;;;;;;;12.23;10.53;;;;;;;;;;4594429;28;20517;-79
2020/12/09 04:13:09;;;;;;;12.37;10.03;;;;;;;;;;4595244;28;20491;-80
2020/12/09 04:15:25;;;;;;;11.20;9.83;;;;;;;;;;4592630;28;20519;-79
2020/12/09 04:17:41;;;;;;;10.40;9.30;;;;;;;;;;4595185;28;20451;-77
2020/12/09 04:19:57;;;;;;;11.63;9.27;;;;;;;;;;4592662;28;20476;-80
2020/12/09 04:22:14;;;;;;;10.53;9.43;;;;;;;;;;4595152;28;20957;-78
2020/12/09 04:24:30;;;;;;;11.60;10.00;;;;;;;;;;4592763;28;20970;-78
2020/12/09 04:26:47;;;;;;;10.27;9.10;;;;;;;;;;4593922;28;20861;-79
2020/12/09 04:29:04;;;;;;;10.57;9.47;;;;;;;;;;4592082;28;20448;-79
2020/12/09 04:31:20;;;;;;;14.17;9.27;;;;;;;;;;4593818;28;20516;-79
2020/12/09 04:33:38;;;;;;;15.80;10.17;;;;;;;;;;4592166;28;20451;-78
2020/12/09 04:35:54;;;;;;;10.07;8.93;;;;;;;;;;4595032;28;20511;-79
2020/12/09 04:38:11;;;;;;;9.73;8.73;;;8.40;76.00;;;;;;4593753;28;20440;-77
2020/12/09 04:40:28;;;;;;;9.53;8.53;;;;;;;;;;4594772;28;20420;-78
2020/12/09 04:42:55;;;;;;;9.70;8.70;;;;;;;;;;4593651;28;20436;-78
2020/12/09 04:45:12;;;;;;;10.83;8.53;;;;;;;;;;4592819;28;21014;-79
2020/12/09 04:47:32;;;;;;;15.20;8.90;;;8.90;81.60;;;;;;4594376;28;20450;-79
2020/12/09 04:49:49;;;;;;;11.13;9.13;;;;;;;;;;4593870;28;20959;-80
2020/12/09 04:52:32;;;;;;;10.47;9.10;;;7.00;80.40;;;;;;4593124;28;20812;-79
2020/12/09 04:54:52;;;;;;;9.60;8.60;;;;;;;;;;4593038;28;20436;-78
2020/12/09 04:57:33;;;;;;;10.27;8.37;;;6.40;74.80;;;;;;4594845;28;20460;-78
2020/12/09 04:59:57;;;;;;;12.40;8.30;;;7.90;76.00;;;;;;4593394;28;20486;-78
2020/12/09 05:02:15;;;;;;;10.50;8.73;;;8.40;81.80;;;;;;4592946;28;20512;-79
2020/12/09 05:04:32;;;;;;;11.67;8.50;;;;;;;;;;4592177;28;20432;-77
2020/12/09 05:06:50;;;;;;;10.50;9.33;;;;;;;;;;4593959;28;20482;-77
2020/12/09 05:09:12;;;;;;;9.83;8.37;;;6.10;74.70;;;;;;4592472;28;20951;-79
2020/12/09 05:11:28;;;;;;;9.50;8.47;;;;;;;;;;4592208;28;20899;-78
2020/12/09 05:13:45;;;;;;;9.83;8.83;;;;;;;;;;4593764;28;20455;-80
2020/12/09 05:16:02;;;;;;;9.60;8.60;;;;;;;;;;4592744;28;20483;-80
2020/12/09 05:18:36;;;;;;;11.03;9.07;;;8.00;76.00;;;;;;4593926;28;20993;-78
2020/12/09 05:20:53;;;;;;;11.20;9.43;;;9.10;82.00;;;;;;4592778;28;20446;-79
2020/12/09 05:23:10;;;;;;;9.53;8.53;;;9.30;82.20;;;;;;4594052;28;20957;-80
2020/12/09 05:25:26;;;;;;;10.50;8.30;;;;;;;;;;4592669;28;20849;-78
2020/12/09 05:27:42;;;;;;;11.23;7.93;;;;;;;;;;4592825;28;20470;-79
2020/12/09 05:29:59;;;;;;;10.40;7.80;;;;;;;;;;4592670;28;20852;-79
2020/12/09 05:32:15;;;;;;;10.57;9.00;;;;;;;;;;4592609;28;20820;-79
2020/12/09 05:34:32;;;;;;;9.83;8.20;;;;;;;;;;4593022;28;20522;-80
2020/12/09 05:36:50;;;;;;;10.37;8.70;;;;;;;;;;4593692;28;20979;-78
2020/12/09 05:39:07;;;;;;;11.10;8.07;;;;;;;;;;4592924;28;20444;-78
2020/12/09 05:41:32;;;;;;;9.93;8.77;;;6.20;74.80;;;;;;4594058;28;20454;-78
2020/12/09 05:43:48;;;;;;;13.90;9.73;;;;;;;;;;4593471;28;20460;-78
2020/12/09 05:46:09;;;;;;;9.60;8.60;;;;;;;;;;4591776;28;20451;-80
2020/12/09 05:48:26;;;;;;;12.43;9.27;;;7.80;75.60;;;;;;4593532;28;20416;-78
2020/12/09 05:50:48;;;;;;;11.77;9.13;;;;;;;;;;4591620;28;20468;-79
2020/12/09 05:53:15;;;;;;;11.27;8.70;;;6.60;80.50;;;;;;4591974;28;20448;-79
2020/12/09 05:55:31;;;;;;;10.13;8.33;;;;;;;;;;4591086;28;20436;-78
2020/12/09 05:57:48;;;;;;;11.47;9.10;;;;;;;;;;4592340;28;20546;-79
2020/12/09 06:00:14;;;;;;;12.37;9.73;;;;;;;;;;4592394;28;20798;-78
2020/12/09 06:02:31;;;;;;;10.23;8.73;;;;;;;;;;4576677;28;20453;-78
2020/12/09 06:04:48;;;;;;;12.87;9.30;;;;;;;;;;4594048;28;20914;-79
2020/12/09 06:07:05;;;;;;;10.83;8.87;;;;;;;;;;4597234;28;20455;-78
2020/12/09 06:09:22;;;;;;;9.83;8.83;;;;;;;;;;4596161;28;20446;-79
2020/12/09 06:11:38;;;;;;;12.27;8.73;;;;;;;;;;4595693;28;20502;-80
2020/12/09 06:13:54;;;;;;;10.77;8.97;;;;;;;;;;4596411;28;20468;-79
2020/12/09 06:16:11;;;;;;;16.93;10.93;;;;;;;;;;4595359;28;20557;-80
2020/12/09 06:18:28;;;;;;;11.53;8.57;;;;;;;;;;4596407;28;20478;-80
2020/12/09 06:20:46;;;;;;;11.27;8.37;;;;;;;;;;4578428;28;20464;-78
2020/12/09 06:23:04;;;;;;;12.80;9.90;;;;;;;;;;4595782;28;20923;-80
2020/12/09 06:25:21;;;;;;;9.97;8.27;;;6.20;74.50;;;;;;4594792;28;20439;-78
2020/12/09 06:27:38;;;;;;;11.43;8.33;;;;;;;;;;4596566;28;20444;-78
2020/12/09 06:29:54;;;;;;;12.40;8.77;;;;;;;;;;4595934;28;20447;-78
2020/12/09 06:32:10;;;;;;;13.17;9.10;;;;;;;;;;4596258;28;21024;-80
2020/12/09 06:34:26;;;;;;;10.37;8.50;;;;;;;;;;4594052;28;20539;-79
2020/12/09 06:36:43;;;;;;;11.60;9.07;;;;;;;;;;4595208;28;20483;-80
2020/12/09 06:39:17;;;;;;;10.53;8.30;;;;;;;;;;4594528;28;20464;-79
2020/12/09 06:41:34;;;;;;;15.67;9.63;;;;;;;;;;4578729;28;20445;-79
2020/12/09 06:44:04;;;;;;;12.43;10.00;;;;;;;;;;4594088;28;20448;-79
2020/12/09 06:46:34;;;;;;;12.57;8.03;;;;;;;;;;4596535;28;20428;-80
2020/12/09 06:48:50;;;;;;;15.37;9.53;;;;;;;;;;4595691;28;20424;-80
2020/12/09 06:51:40;;;;;;;11.90;9.27;;;6.10;74.60;;;;;;4595757;28;20459;-80
2020/12/09 06:54:11;;;;;;;12.80;9.70;;;7.90;75.60;;;;;;4595219;28;20421;-79
2020/12/09 06:56:28;;;;;;;15.67;9.83;;;;;;;;;;4593592;28;20468;-78
2020/12/09 06:58:44;;;;;;;14.87;9.50;;;;;;;;;;4595646;28;21002;-77
2020/12/09 07:01:00;;;;;;;14.00;8.60;;;;;;;;;;4594608;28;20487;-81
2020/12/09 07:03:25;;;;;;;10.43;8.30;;;;;;;;;;4596202;28;20538;-79
2020/12/09 07:05:41;;;;;;;10.23;7.90;;;;;;;;;;4592369;28;20456;-79
2020/12/09 07:08:14;;;;;;;9.93;7.83;;;;;;;;;;4594153;28;20412;-79
2020/12/09 07:10:48;;;;;;;11.07;8.23;;;;;;;;;;4590062;28;20420;-79
2020/12/09 07:13:11;;;;;;;15.23;9.37;;;8.00;74.90;;;;;;4574416;28;20472;-80
2020/12/09 07:15:27;;;;;;;10.73;8.40;;;;;;;;;;4593618;28;20506;-80
2020/12/09 07:17:45;;;;;;;8.93;7.70;;;;;;;;;;4594543;28;20443;-79
2020/12/09 07:20:02;;;;;;;12.90;8.60;;;;;;;;;;4594527;28;20462;-78
2020/12/09 07:22:19;;;;;;;10.07;8.10;;;;;;;;;;4593931;28;20494;-80
2020/12/09 07:24:36;;;;;;;11.87;8.63;;;;;;;;;;4594227;28;20828;-77
2020/12/09 07:27:05;;;;;;;8.80;7.80;;;;;;;;;;4593369;28;20429;-80
2020/12/09 07:29:22;;;;;;;9.77;8.03;;;;;;;;;;4595466;28;20424;-78
2020/12/09 07:31:47;;;;;;;16.97;8.70;;;;;;;;;;4596253;28;20471;-77
2020/12/09 07:34:03;;;;;;;11.10;7.57;;;;;;;;;;4595008;28;20432;-80
2020/12/09 07:36:19;;;;;;;16.03;8.43;;;;;;;;;;4594584;28;20538;-79
2020/12/09 07:38:35;;;;;;;11.20;8.13;;;;;;;;;;4593255;28;20443;-79
2020/12/09 07:40:52;;;;;;;11.10;7.93;;;;;;;;;;4593328;28;20531;-79
2020/12/09 07:43:09;;;;;;;9.00;8.00;;;;;;;;;;4592658;28;20503;-80
2020/12/09 07:45:30;;;;;;;11.40;8.57;;;6.20;79.10;;;;;;4593388;28;20589;-78
2020/12/09 07:47:46;;;;;;;10.73;8.53;;;;;;;;;;4593206;28;20443;-79
2020/12/09 07:50:03;;;;;;;11.17;8.70;;;;;;;;;;4594508;28;20475;-78
2020/12/09 07:52:21;;;;;;;10.07;7.93;;;;;;;;;;4594110;28;20799;-78
2020/12/09 07:54:38;;;;;;;11.50;8.50;;;;;;;;;;4593010;28;20523;-78
2020/12/09 07:56:54;;;;;;;11.20;8.93;;;;;;;;;;4592672;28;20575;-79
2020/12/09 07:59:13;;;;;;;13.10;8.60;;;;;;;;;;4593266;28;20440;-77
2020/12/09 08:01:33;;;;;;;11.17;8.57;;;;;;;;;;4589393;28;20440;-78
2020/12/09 08:03:50;;;;;;;11.67;9.20;;;;;;;;;;4587652;28;20446;-76
2020/12/09 08:06:06;;;;;;;10.53;8.03;;;;;;;;;;4589570;28;20450;-79
2020/12/09 08:08:25;;;;;;;12.20;8.77;;;;;;;;;;4589776;28;20510;-78
2020/12/09 08:10:43;;;;;;;11.73;8.57;;;;;;;;;;4587973;28;21006;-77
2020/12/09 08:13:01;;;;;;;13.57;8.33;;;;;;;;;;4590310;28;20496;-79
2020/12/09 08:15:18;;;;;;;11.97;8.30;;;;;;;;;;4588969;28;20472;-78
2020/12/09 08:17:35;;;;;;;9.47;8.17;;;;;;;;;;4589094;28;20479;-77
2020/12/09 08:19:59;;;;;;;12.43;8.67;;;;;;;;;;4572348;28;20480;-78
2020/12/09 08:22:15;;;;;;;13.27;9.27;;;;;;;;;;4588268;28;20444;-80
2020/12/09 08:24:31;;;;;;;10.53;8.40;;;;;;;;;;4589904;28;20440;-79
2020/12/09 08:26:47;;;;;;;12.63;9.10;;;;;;;;;;4587256;28;20451;-78
2020/12/09 08:29:05;;;;;;;9.80;8.33;;;;;;;;;;4587302;28;20519;-79
2020/12/09 08:31:20;;;;;;;15.20;9.20;;;;;;;;;;4587454;28;20897;-77
2020/12/09 08:33:38;;;;;;;12.73;8.70;;;;;;;;;;4589098;28;20962;-79
2020/12/09 08:36:04;;;;;;;9.43;8.43;;;;;;;;;;4588385;28;20479;-80
2020/12/09 08:38:25;;;;;;;11.57;8.97;;;;;;;;;;4588158;28;20459;-79
2020/12/09 08:40:41;;;;;;;10.37;8.20;;;;;;;;;;4587385;28;20440;-79
2020/12/09 08:42:59;;;;;;;14.57;8.73;;;;;;;;;;4588565;28;20439;-78
2020/12/09 08:45:15;;;;;;;14.07;9.87;;;;;;;;;;4588730;28;20543;-79
2020/12/09 08:47:31;;;;;;;13.10;9.77;;;;;;;;;;4588200;28;20444;-80
2020/12/09 08:49:48;;;;;;;11.57;8.87;;;;;;;;;;4588174;28;20460;-79
2020/12/09 08:52:04;;;;;;;10.87;8.47;;;;;;;;;;4589232;28;20481;-76
2020/12/09 08:54:20;;;;;;;13.97;10.07;;;;;;;;;;4585662;28;20545;-77
2020/12/09 08:56:36;;;;;;;10.33;7.90;;;;;;;;;;4584972;28;20517;-78
2020/12/09 08:58:53;;;;;;;11.37;8.57;;;;;;;;;;4587660;28;20467;-79
2020/12/09 09:01:11;;;;;;;17.97;9.80;;;;;;;;;;4588071;28;20432;-79
2020/12/09 09:03:27;;;;;;;13.83;9.03;;;;;;;;;;4587781;28;20479;-77
2020/12/09 09:05:45;;;;;;;10.93;8.10;;;;;;;;;;4586920;28;20494;-79
2020/12/09 09:08:01;;;;;;;11.87;9.57;;;;;;;;;;4586935;28;20833;-79
2020/12/09 09:10:17;;;;;;;10.80;8.60;;;;;;;;;;4586804;28;20819;-77
2020/12/09 09:12:34;;;;;;;9.10;8.17;;;;;;;;;;4587130;28;20542;-76
2020/12/09 09:14:50;;;;;;;12.80;9.03;;;;;;;;;;4585677;28;21138;-76
2020/12/09 09:17:06;;;;;;;11.10;7.97;;;;;;;;;;4585809;28;20484;-76
2020/12/09 09:19:22;;;;;;;11.70;8.57;;;;;;;;;;4586948;28;20462;-76
2020/12/09 09:21:44;;;;;;;10.60;7.43;;;;;;;;;;4585228;28;21040;-76
2020/12/09 09:24:00;;;;;;;11.40;9.20;;;;;;;;;;4586633;28;20433;-78
2020/12/09 09:26:16;;;;;;;10.10;8.57;;;;;;;;;;4585798;28;20510;-77
2020/12/09 09:28:32;;;;;;;13.87;9.30;;;;;;;;;;4586915;28;20452;-78
2020/12/09 09:30:47;;;;;;;10.33;8.30;;;;;;;;;;4586767;28;20449;-78
2020/12/09 09:33:03;;;;;;;14.90;10.07;;;;;;;;;;4586805;28;20862;-76
2020/12/09 09:35:19;;;;;;;10.50;8.00;;;;;;;;;;4587121;28;20448;-78
2020/12/09 09:37:37;;;;;;;10.00;8.53;;;;;;;;;;4579972;28;20584;-77
2020/12/09 09:39:52;;;;;;;10.80;8.20;;;;;;;;;;4586161;28;20503;-79
2020/12/09 09:42:08;;;;;;;12.30;7.90;;;;;;;;;;4586447;28;20456;-77
2020/12/09 09:44:24;;;;;;;9.30;8.30;;;;;;;;;;4586685;28;21203;-77
2020/12/09 09:46:40;;;;;;;10.03;7.73;;;;;;;;;;4586279;28;20526;-78
2020/12/09 09:48:58;;;;;;;9.10;7.50;;;;;;;;;;4586364;28;20452;-75
2020/12/09 09:51:14;;;;;;;9.57;7.77;;;;;;;;;;4586770;28;20555;-76
2020/12/09 09:53:31;;;;;;;12.60;8.67;;;;;;;;;;4586141;28;20955;-78
2020/12/09 09:55:47;;;;;;;10.70;8.33;;;;;;;;;;4587173;28;20451;-81
2020/12/09 09:58:03;;;;;;;58.37;43.07;;;;;;;;;;4586387;28;20510;-80
2020/12/09 10:00:19;;;;;;;10.87;9.10;;;;;;;;;;4587706;28;20786;-79
2020/12/09 10:02:35;;;;;;;14.27;8.67;;;9.70;72.20;;;;;;4585137;28;20459;-80
2020/12/09 10:04:51;;;;;;;11.20;8.07;;;;;;;;;;4587138;28;21015;-81
2020/12/09 10:07:09;;;;;;;10.10;8.33;;;8.50;70.20;;;;;;4587303;28;21021;-79
2020/12/09 10:09:29;;;;;;;10.80;7.90;;;;;;;;;;4586925;28;20490;-76
2020/12/09 10:11:44;;;;;;;11.40;9.10;;;;;;;;;;4588142;28;20865;-80
2020/12/09 10:14:03;;;;;;;9.53;7.93;;;;;;;;;;4589216;28;20443;-83
2020/12/09 10:16:23;;;;;;;9.87;7.27;;;;;;;;;;4586278;28;20487;-80
2020/12/09 10:18:39;;;;;;;12.20;8.63;;;;;;;;;;4591698;28;20437;-81
2020/12/09 10:20:58;;;;;;;13.40;8.47;;;9.00;67.60;;;;;;4589350;28;20530;-81
2020/12/09 10:23:14;;;;;;;10.53;8.13;;;;;;;;;;4590029;28;20458;-83
2020/12/09 10:25:31;;;;;;;9.27;7.30;;;;;;;;;;4588742;28;20486;-80
2020/12/09 10:27:46;;;;;;;9.70;8.53;;;;;;;;;;4588813;28;20776;-82
2020/12/09 10:30:03;;;;;;;12.27;7.73;;;9.10;70.00;;;;;;4589621;28;20517;-79
2020/12/09 10:32:18;;;;;;;10.30;7.70;;;;;;;;;;4589370;28;20444;-85
2020/12/09 10:34:35;;;;;;;11.00;8.07;;;11.30;71.30;;;;;;4586437;28;20464;-79
2020/12/09 10:36:55;;;;;;;12.83;8.73;;;9.00;67.20;;;;;;4587342;28;20476;-81
2020/12/09 10:39:11;;;;;;;11.50;8.37;;;;;;;;;;4585160;28;20494;-79
2020/12/09 10:41:28;;;;;;;8.93;7.87;;;;;;;;;;4586033;28;20555;-79
2020/12/09 10:43:44;;;;;;;11.40;8.80;;;;;;;;;;4585841;28;20448;-79
2020/12/09 10:46:01;;;;;;;12.43;8.30;;;;;;;;;;4587786;28;20827;-78
2020/12/09 10:48:17;;;;;;;15.10;8.33;;;9.10;72.00;;;;;;4586391;28;20490;-78
2020/12/09 10:50:33;;;;;;;10.00;8.03;;;;;;;;;;4586940;28;20487;-78
2020/12/09 10:52:49;;;;;;;10.73;8.10;;;;;;;;;;4588362;28;20444;-77
2020/12/09 10:55:08;;;;;;;11.67;8.40;;;;;;;;;;4590206;28;20530;-78
2020/12/09 10:57:25;;;;;;;13.40;8.63;;;;;;;;;;4590290;28;20472;-78
2020/12/09 10:59:42;;;;;;;9.23;7.37;;;;;;;;;;4589374;28;20914;-80
2020/12/09 11:01:59;;;;;;;11.13;7.20;;;;;;;;;;4589235;28;20885;-80
2020/12/09 11:04:19;;;;;;;11.33;8.53;;;;;;;;;;4589306;28;20444;-80
2020/12/09 11:06:38;;;;;;;13.13;8.20;;;;;;;;;;4589876;28;21444;-78
2020/12/09 11:08:54;;;;;;;10.23;7.97;;;;;;;;;;4590191;28;20497;-79
2020/12/09 11:11:10;;;;;;;10.67;8.17;;;;;;;;;;4590340;28;21394;-78
2020/12/09 11:13:27;;;;;;;12.13;8.40;;;;;;;;;;4590350;28;20451;-79
2020/12/09 11:15:43;;;;;;;11.43;8.30;;;;;;;;;;4588226;28;20937;-79
2020/12/09 11:18:00;;;;;;;9.43;8.03;;;;;;;;;;4588763;28;20482;-79
2020/12/09 11:20:16;;;;;;;14.60;8.87;;;;;;;;;;4590181;28;20617;-79
2020/12/09 11:22:33;;;;;;;8.67;7.77;;;;;;;;;;4589039;28;20443;-78
2020/12/09 11:24:50;;;;;;;11.07;8.03;;;;;;;;;;4590276;28;20454;-78
2020/12/09 11:27:07;;;;;;;8.20;7.10;;;;;;;;;;4588673;28;20428;-79
2020/12/09 11:29:24;;;;;;;11.53;8.10;;;;;;;;;;4589115;28;20447;-79
2020/12/09 11:31:40;;;;;;;10.33;7.67;;;;;;;;;;4587562;28;21487;-80
2020/12/09 11:33:56;;;;;;;10.00;8.17;;;;;;;;;;4589136;28;20814;-78
2020/12/09 11:36:12;;;;;;;10.07;7.40;;;;;;;;;;4586633;28;20439;-81
2020/12/09 11:38:29;;;;;;;9.17;8.13;;;;;;;;;;4590345;28;20982;-79
2020/12/09 11:40:47;;;;;;;9.43;7.73;;;;;;;;;;4589207;28;20446;-79
2020/12/09 11:43:07;;;;;;;8.70;7.50;;;;;;;;;;4588639;28;20452;-80
2020/12/09 11:45:26;;;;;;;10.00;7.97;;;;;;;;;;4572221;28;20644;-80
2020/12/09 11:47:43;;;;;;;15.07;7.70;;;;;;;;;;4589062;28;20537;-79
2020/12/09 11:50:00;;;;;;;11.03;8.30;;;;;;;;;;4590118;28;20970;-80
2020/12/09 11:52:17;;;;;;;10.73;8.87;;;;;;;;;;4588547;28;20956;-81
2020/12/09 11:54:36;;;;;;;13.03;8.17;;;;;;;;;;4589421;28;20534;-82
2020/12/09 11:56:52;;;;;;;9.93;7.40;;;;;;;;;;4590412;28;20428;-80
2020/12/09 11:59:10;;;;;;;9.57;7.60;;;;;;;;;;4587482;28;20440;-82
2020/12/09 12:01:27;;;;;;;10.47;7.90;;;;;;;;;;4589935;28;20444;-82
2020/12/09 12:03:44;;;;;;;11.27;8.03;;;;;;;;;;4588735;28;20501;-82
2020/12/09 12:06:01;;;;;;;9.70;8.63;;;;;;;;;;4589982;28;20459;-80
2020/12/09 12:08:17;;;;;;;10.63;7.53;;;;;;;;;;4588581;28;20432;-78
2020/12/09 12:10:33;;;;;;;12.43;8.33;;;;;;;;;;4589049;28;21034;-80
2020/12/09 12:12:50;;;;;;;11.23;7.90;;;;;;;;;;4589005;28;20930;-80
2020/12/09 12:15:07;;;;;;;11.90;8.60;;;;;;;;;;4587879;28;20479;-77
2020/12/09 12:17:24;;;;;;;10.83;8.20;;;;;;;;;;4588267;28;20495;-81
2020/12/09 12:19:41;;;;;;;11.87;9.33;;;;;;;;;;4588266;28;20467;-79
2020/12/09 12:21:57;;;;;;;12.27;9.90;;;;;;;;;;4588843;28;20526;-81
2020/12/09 12:24:13;;;;;;;11.40;9.27;;;;;;;;;;4590187;28;20440;-78
2020/12/09 12:26:30;;;;;;;10.83;8.80;;;;;;;;;;4585845;28;20467;-77
2020/12/09 12:28:47;;;;;;;10.27;7.77;;;;;;;;;;4589935;28;20444;-80
2020/12/09 12:31:03;;;;;;;9.47;8.47;;;;;;;;;;4588801;28;20440;-79
2020/12/09 12:33:20;;;;;;;9.93;8.40;;;;;;;;;;4587390;28;20454;-79
2020/12/09 12:35:36;;;;;;;12.87;7.40;;;;;;;;;;4588975;28;20440;-84
2020/12/09 12:37:52;;;;;;;11.10;8.37;;;;;;;;;;4587049;28;20986;-79
2020/12/09 12:40:09;;;;;;;11.13;8.87;;;;;;;;;;4587189;28;20459;-80
2020/12/09 12:42:25;;;;;;;10.93;8.37;;;;;;;;;;4587876;28;20459;-79
2020/12/09 12:44:42;;;;;;;8.83;7.93;;;;;;;;;;4590166;28;20448;-80
2020/12/09 12:46:59;;;;;;;12.70;8.73;;;;;;;;;;4588849;28;20428;-80
2020/12/09 12:49:15;;;;;;;9.27;7.70;;;;;;;;;;4588666;28;20486;-76
2020/12/09 12:51:31;;;;;;;9.77;8.17;;;;;;;;;;4589161;28;20552;-80
2020/12/09 12:53:48;;;;;;;12.67;8.07;;;;;;;;;;4590029;28;20439;-80
2020/12/09 12:56:04;;;;;;;84.47;63.23;;;;;;;;;;4587293;28;20474;-77
2020/12/09 12:58:20;;;;;;;235.23;195.27;;;;;;;;;;4586823;28;20835;-80
2020/12/09 13:00:36;;;;;;;17.27;13.87;;;;;;;;;;4591418;28;20448;-83
2020/12/09 13:02:52;;;;;;;15.23;8.67;;;;;;;;;;4591575;28;20452;-81
2020/12/09 13:05:09;;;;;;;14.17;9.90;;;;;;;;;;4588802;28;21005;-83
2020/12/09 13:07:25;;;;;;;9.90;8.27;;;;;;;;;;4589241;28;20455;-82
2020/12/09 13:09:41;;;;;;;12.20;9.20;;;;;;;;;;4588970;28;20855;-82
2020/12/09 13:11:57;;;;;;;10.33;7.80;;;;;;;;;;4590835;28;20451;-83
2020/12/09 13:14:13;;;;;;;10.70;8.97;;;;;;;;;;4585513;28;20448;-83
2020/12/09 13:16:32;;;;;;;11.40;8.53;;;;;;;;;;4590614;28;20487;-84
2020/12/09 13:18:48;;;;;;;13.23;8.47;;;;;;;;;;4588975;28;20833;-88